Anton, Texas
Current Conditions -  °F | °C
As of 9:53 PM on Sunday 23 Nov 2014 (Local Time) from KLBB Reporting Station
Clear Clear  
Wind Chill: -2°   Ceiling: Unl
Heat Index:   Visibility: 10mi
Dew Point: -3°   Wind: 10mph
Humidity: 70%   Direction: 310°NW
Pressure: 29.92"   Gusts: NA
Location:  33.81°N, 102.16°W
Report Text: KLBB 240353Z 31009KT 10SM CLR 02/M03 A2992 RMK AO2 SLP116 T00221028
Loading
Personal Weather Stations






























Interactive Weather Map New forecast layout! Learn more

10-Day Weather Forecast

Advertisements
Track Severe Weather on mobile